createdAt,value
2022-08-26T00:00:42.264Z,24.66
2022-08-26T00:03:45.229Z,24.63
2022-08-26T00:06:47.618Z,24.50
2022-08-26T00:09:54.380Z,24.53
2022-08-26T00:12:57.616Z,24.47
2022-08-26T00:16:00.279Z,24.44
2022-08-26T00:19:02.671Z,24.52
2022-08-26T00:22:05.328Z,24.49
2022-08-26T00:25:08.404Z,24.36
2022-08-26T00:28:12.331Z,24.39
2022-08-26T00:31:16.752Z,24.33
2022-08-26T00:34:19.700Z,24.37
2022-08-26T00:37:22.036Z,24.34
2022-08-26T00:40:31.841Z,24.30
2022-08-26T00:43:47.174Z,24.31
2022-08-26T00:46:59.546Z,24.30
2022-08-26T00:50:07.702Z,24.26
2022-08-26T00:53:24.136Z,24.25
2022-08-26T00:56:38.701Z,24.25
2022-08-26T00:59:42.131Z,24.24
2022-08-26T01:02:48.546Z,24.21
2022-08-26T01:05:58.172Z,24.18
2022-08-26T01:09:00.436Z,24.03
2022-08-26T01:12:03.745Z,24.00
2022-08-26T01:15:07.670Z,24.07
2022-08-26T01:18:13.384Z,23.94
2022-08-26T01:21:52.959Z,24.03
2022-08-26T01:24:59.005Z,24.00
2022-08-26T01:28:05.955Z,23.97
2022-08-26T01:31:12.126Z,23.84
2022-08-26T01:34:23.302Z,23.81
2022-08-26T01:37:32.947Z,23.89
2022-08-26T01:40:38.576Z,23.87
2022-08-26T01:43:45.919Z,23.81
2022-08-26T01:46:51.273Z,23.81
2022-08-26T01:49:56.756Z,23.78
2022-08-26T01:53:11.325Z,23.63
2022-08-26T01:56:15.454Z,23.70
2022-08-26T01:59:20.534Z,23.68
2022-08-26T02:02:24.511Z,23.65
2022-08-26T02:05:27.138Z,23.59
2022-08-26T02:08:56.757Z,23.54
2022-08-26T02:12:01.815Z,23.55
2022-08-26T02:15:08.460Z,23.53
2022-08-26T02:18:14.261Z,23.39
2022-08-26T02:21:17.255Z,23.38
2022-08-26T02:24:27.579Z,23.35
2022-08-26T02:27:33.662Z,23.43
2022-08-26T02:30:38.684Z,23.32
2022-08-26T02:33:43.061Z,23.25
2022-08-26T02:36:45.913Z,23.36
2022-08-26T02:39:48.543Z,23.21
2022-08-26T02:42:53.017Z,23.26
2022-08-26T02:46:00.054Z,23.25
2022-08-26T02:49:05.034Z,23.21
2022-08-26T02:52:08.668Z,23.10
2022-08-26T02:55:11.527Z,23.07
2022-08-26T02:58:13.745Z,23.16
2022-08-26T03:01:25.506Z,23.16
2022-08-26T03:04:27.831Z,23.03
2022-08-26T03:07:30.676Z,23.09
2022-08-26T03:10:32.928Z,22.96
2022-08-26T03:13:36.317Z,23.04
2022-08-26T03:16:39.103Z,22.88
2022-08-26T03:19:41.707Z,23.01
2022-08-26T03:22:44.830Z,22.89
2022-08-26T03:25:52.523Z,22.99
2022-08-26T03:29:14.423Z,22.99
2022-08-26T03:32:17.151Z,22.99
2022-08-26T03:35:19.861Z,22.97
2022-08-26T03:38:27.880Z,22.85
2022-08-26T03:41:32.619Z,22.95
2022-08-26T03:44:37.062Z,22.79
2022-08-26T03:47:45.105Z,22.85
2022-08-26T03:50:47.607Z,22.76
2022-08-26T03:53:51.081Z,22.73
2022-08-26T03:56:53.954Z,22.83
2022-08-26T03:59:56.184Z,22.71
2022-08-26T04:02:59.158Z,22.71
2022-08-26T04:06:01.834Z,22.70
2022-08-26T04:09:07.865Z,22.72
2022-08-26T04:12:10.923Z,22.78
2022-08-26T04:15:16.400Z,22.79
2022-08-26T04:18:20.745Z,22.79
2022-08-26T04:21:24.315Z,22.81
2022-08-26T04:24:27.964Z,22.73
2022-08-26T04:27:30.285Z,22.74
2022-08-26T04:30:37.519Z,22.77
2022-08-26T04:33:41.681Z,22.79
2022-08-26T04:36:44.692Z,22.88
2022-08-26T04:39:51.542Z,22.92
2022-08-26T04:42:54.730Z,22.86
2022-08-26T04:46:02.947Z,23.01
2022-08-26T04:49:08.285Z,23.05
2022-08-26T04:52:10.568Z,23.08
2022-08-26T04:55:13.095Z,23.11
2022-08-26T04:58:18.572Z,23.15
2022-08-26T05:01:22.018Z,23.10
2022-08-26T05:04:26.309Z,23.27
2022-08-26T05:07:28.820Z,23.22
2022-08-26T05:10:31.097Z,23.37
2022-08-26T05:13:34.848Z,23.42
2022-08-26T05:16:37.756Z,23.37
2022-08-26T05:19:43.166Z,23.41
2022-08-26T05:22:45.410Z,23.48
2022-08-26T05:25:50.161Z,23.65
2022-08-26T05:28:54.889Z,23.59
2022-08-26T05:31:57.925Z,23.77
2022-08-26T05:35:00.348Z,23.72
2022-08-26T05:38:12.413Z,23.80
2022-08-26T05:41:34.283Z,23.86
2022-08-26T05:44:54.045Z,23.96
2022-08-26T05:47:58.349Z,24.07
2022-08-26T05:51:05.195Z,24.11
2022-08-26T05:54:07.486Z,24.02
2022-08-26T05:57:13.903Z,24.17
2022-08-26T06:00:16.393Z,24.18
2022-08-26T06:03:19.340Z,24.23
2022-08-26T06:06:33.552Z,24.25
2022-08-26T06:09:37.631Z,24.25
2022-08-26T06:12:41.512Z,24.51
2022-08-26T06:15:49.166Z,24.63
2022-08-26T06:18:53.394Z,24.70
2022-08-26T06:21:56.019Z,24.84
2022-08-26T06:25:16.899Z,24.94
2022-08-26T06:28:19.463Z,25.05
2022-08-26T06:31:22.962Z,25.22
2022-08-26T06:34:30.916Z,25.34
2022-08-26T06:37:35.766Z,25.55
2022-08-26T06:40:48.727Z,25.68
2022-08-26T06:43:51.250Z,25.86
2022-08-26T06:46:54.098Z,25.98
2022-08-26T06:49:57.078Z,26.07
2022-08-26T06:52:59.785Z,26.33
2022-08-26T06:56:06.223Z,26.47
2022-08-26T06:59:10.544Z,26.79
2022-08-26T07:02:13.344Z,26.97
2022-08-26T07:05:16.437Z,27.04
2022-08-26T07:08:18.785Z,27.22
2022-08-26T07:11:21.651Z,27.48
2022-08-26T07:14:26.635Z,27.72
2022-08-26T07:17:29.778Z,28.00
2022-08-26T07:20:32.100Z,28.24
2022-08-26T07:23:35.675Z,28.42
2022-08-26T07:26:38.525Z,28.76
2022-08-26T07:29:43.431Z,28.95
2022-08-26T07:32:45.957Z,29.32
2022-08-26T07:35:48.730Z,29.59
2022-08-26T07:38:52.156Z,29.88
2022-08-26T07:41:54.613Z,30.15
2022-08-26T07:44:56.880Z,30.36
2022-08-26T07:48:00.232Z,30.63
2022-08-26T07:51:06.349Z,31.08
2022-08-26T07:54:09.106Z,31.35
2022-08-26T07:57:11.372Z,31.06
2022-08-26T08:00:16.223Z,31.53
2022-08-26T08:03:18.962Z,31.80
2022-08-26T08:06:27.422Z,32.24
2022-08-26T08:09:30.746Z,32.60
2022-08-26T08:12:33.341Z,33.02
2022-08-26T08:15:37.656Z,33.06
2022-08-26T08:18:41.290Z,33.28
2022-08-26T08:21:45.263Z,33.93
2022-08-26T08:24:49.729Z,33.90
2022-08-26T08:27:52.608Z,34.42
2022-08-26T08:30:55.065Z,34.55
2022-08-26T08:33:57.583Z,34.88
2022-08-26T08:36:59.740Z,35.09
2022-08-26T08:40:04.365Z,34.95
2022-08-26T08:43:11.032Z,35.53
2022-08-26T08:46:16.820Z,35.90
2022-08-26T08:49:20.062Z,36.22
2022-08-26T08:52:35.431Z,36.48
2022-08-26T08:55:58.374Z,36.57
2022-08-26T08:59:21.912Z,36.83
2022-08-26T09:02:38.549Z,37.03
2022-08-26T09:05:48.710Z,37.25
2022-08-26T09:08:51.847Z,37.54
2022-08-26T09:11:56.396Z,37.79
2022-08-26T09:15:06.313Z,38.23
2022-08-26T09:18:38.302Z,38.37
2022-08-26T09:21:41.138Z,38.83
2022-08-26T09:24:49.101Z,38.68
2022-08-26T09:27:53.416Z,38.64
2022-08-26T09:31:24.862Z,38.94
2022-08-26T09:34:31.174Z,39.38
2022-08-26T09:40:59.259Z,39.86
2022-08-26T09:44:17.227Z,40.45
2022-08-26T09:47:30.249Z,40.49
2022-08-26T09:50:34.245Z,40.86
2022-08-26T09:53:49.478Z,40.85
2022-08-26T09:56:52.766Z,40.62
2022-08-26T09:59:55.590Z,40.71
2022-08-26T10:03:00.803Z,40.76
2022-08-26T10:06:04.903Z,41.17
2022-08-26T10:09:11.646Z,41.20
2022-08-26T10:12:19.174Z,41.33
2022-08-26T10:15:25.345Z,41.26
2022-08-26T10:18:40.389Z,40.60
2022-08-26T10:21:56.604Z,40.39
2022-08-26T10:25:05.054Z,41.01
2022-08-26T10:28:23.430Z,40.17
2022-08-26T10:31:47.854Z,40.84
2022-08-26T10:34:54.049Z,40.81
2022-08-26T10:38:09.217Z,40.78
2022-08-26T10:41:20.750Z,41.10
2022-08-26T10:44:25.394Z,41.59
2022-08-26T10:47:40.241Z,41.49
2022-08-26T10:50:47.415Z,41.27
2022-08-26T10:54:11.894Z,41.63
2022-08-26T10:57:33.128Z,41.96
2022-08-26T11:01:10.146Z,41.91
2022-08-26T11:04:13.201Z,41.95
2022-08-26T11:07:50.893Z,41.91
2022-08-26T11:11:00.024Z,41.46
2022-08-26T11:14:05.037Z,41.71
2022-08-26T11:17:11.677Z,40.91
2022-08-26T11:20:23.943Z,40.94
2022-08-26T11:23:27.219Z,41.10
2022-08-26T11:26:55.475Z,41.49
2022-08-26T11:30:06.306Z,41.50
2022-08-26T11:33:09.269Z,41.41
2022-08-26T11:36:28.645Z,41.37
2022-08-26T11:39:54.060Z,41.33
2022-08-26T11:43:26.067Z,41.11
2022-08-26T11:46:35.871Z,41.20
2022-08-26T11:49:38.797Z,41.02
2022-08-26T11:52:51.528Z,41.08
2022-08-26T11:55:56.498Z,40.97
2022-08-26T11:59:03.798Z,40.98
2022-08-26T12:02:15.410Z,40.78
2022-08-26T12:05:25.679Z,40.53
2022-08-26T12:08:34.148Z,40.23
2022-08-26T12:11:38.570Z,40.00
2022-08-26T12:14:44.111Z,40.05
2022-08-26T12:17:51.728Z,40.04
2022-08-26T12:20:57.879Z,39.81
2022-08-26T12:24:03.191Z,39.82
2022-08-26T12:27:40.002Z,39.94
2022-08-26T12:31:01.025Z,40.07
2022-08-26T12:34:06.279Z,39.92
2022-08-26T12:37:20.103Z,39.50
2022-08-26T12:40:39.539Z,39.67
2022-08-26T12:43:44.840Z,39.63
2022-08-26T12:46:50.480Z,39.46
2022-08-26T12:50:22.103Z,38.90
2022-08-26T12:53:32.175Z,38.80
2022-08-26T12:56:40.684Z,38.69
2022-08-26T12:59:42.959Z,38.67
2022-08-26T13:02:45.477Z,38.94
2022-08-26T13:05:47.856Z,38.71
2022-08-26T13:08:52.898Z,38.20
2022-08-26T13:11:55.189Z,38.52
2022-08-26T13:14:58.815Z,38.27
2022-08-26T13:18:00.963Z,38.34
2022-08-26T13:21:24.940Z,38.27
2022-08-26T13:24:41.963Z,38.35
2022-08-26T13:27:44.532Z,38.10
2022-08-26T13:30:48.167Z,38.28
2022-08-26T13:33:51.211Z,38.35
2022-08-26T13:36:56.343Z,37.94
2022-08-26T13:39:59.498Z,38.09
2022-08-26T13:43:02.426Z,38.00
2022-08-26T13:46:07.246Z,37.92
2022-08-26T13:49:10.278Z,38.05
2022-08-26T13:52:13.374Z,37.98
2022-08-26T13:55:16.265Z,37.77
2022-08-26T13:58:18.977Z,37.68
2022-08-26T14:01:21.247Z,37.47
2022-08-26T14:04:26.967Z,37.42
2022-08-26T14:07:29.603Z,37.32
2022-08-26T14:10:32.433Z,37.07
2022-08-26T14:13:34.745Z,37.07
2022-08-26T14:16:39.410Z,36.92
2022-08-26T14:20:04.277Z,36.77
2022-08-26T14:23:14.633Z,36.48
2022-08-26T14:26:28.425Z,36.60
2022-08-26T14:29:33.471Z,36.57
2022-08-26T14:32:36.437Z,36.46
2022-08-26T14:35:39.915Z,36.34
2022-08-26T14:38:50.664Z,35.96
2022-08-26T14:41:55.679Z,35.80
2022-08-26T14:45:01.717Z,35.74
2022-08-26T14:48:04.867Z,35.49
2022-08-26T14:51:07.221Z,35.38
2022-08-26T14:54:14.046Z,35.17
2022-08-26T14:57:17.289Z,35.07
2022-08-26T15:00:19.880Z,34.96
2022-08-26T15:03:22.242Z,34.87
2022-08-26T15:06:25.094Z,34.78
2022-08-26T15:09:29.253Z,34.70
2022-08-26T15:12:33.883Z,34.63
2022-08-26T15:15:37.332Z,34.48
2022-08-26T15:18:40.351Z,34.31
2022-08-26T15:21:43.342Z,34.29
2022-08-26T15:24:45.794Z,34.19
2022-08-26T15:27:48.700Z,34.11
2022-08-26T15:30:51.665Z,33.83
2022-08-26T15:33:54.342Z,33.81
2022-08-26T15:36:56.754Z,33.72
2022-08-26T15:39:59.022Z,33.64
2022-08-26T15:43:18.551Z,33.45
2022-08-26T15:46:24.787Z,33.41
2022-08-26T15:49:27.715Z,33.05
2022-08-26T15:52:30.008Z,32.94
2022-08-26T15:55:32.612Z,32.77
2022-08-26T15:58:34.966Z,32.69
2022-08-26T16:01:38.865Z,32.61
2022-08-26T16:04:41.954Z,32.51
2022-08-26T16:07:47.701Z,32.46
2022-08-26T16:10:51.367Z,32.41
2022-08-26T16:13:54.077Z,32.32
2022-08-26T16:16:57.501Z,32.17
2022-08-26T16:19:59.932Z,32.21
2022-08-26T16:23:03.827Z,32.01
2022-08-26T16:26:10.857Z,31.92
2022-08-26T16:29:16.254Z,31.83
2022-08-26T16:32:18.536Z,31.76
2022-08-26T16:35:21.124Z,31.66
2022-08-26T16:38:23.410Z,31.61
2022-08-26T16:41:29.856Z,31.48
2022-08-26T16:44:44.192Z,31.25
2022-08-26T16:47:48.091Z,31.24
2022-08-26T16:50:51.594Z,31.25
2022-08-26T16:53:56.327Z,31.18
2022-08-26T16:56:58.644Z,31.12
2022-08-26T17:00:05.076Z,30.93
2022-08-26T17:03:09.325Z,30.87
2022-08-26T17:06:13.124Z,30.92
2022-08-26T17:09:15.995Z,30.86
2022-08-26T17:12:18.859Z,30.73
2022-08-26T17:15:23.766Z,30.75
2022-08-26T17:18:29.241Z,30.70
2022-08-26T17:21:34.223Z,30.53
2022-08-26T17:24:37.384Z,30.58
2022-08-26T17:27:40.849Z,30.50
2022-08-26T17:30:44.405Z,30.44
2022-08-26T17:33:53.213Z,30.26
2022-08-26T17:36:56.141Z,30.19
2022-08-26T17:39:58.568Z,30.21
2022-08-26T17:43:01.833Z,30.14
2022-08-26T17:46:07.451Z,29.97
2022-08-26T17:49:10.159Z,29.91
2022-08-26T17:52:12.812Z,29.80
2022-08-26T17:55:17.886Z,29.78
2022-08-26T17:58:23.752Z,29.60
2022-08-26T18:01:28.341Z,29.57
2022-08-26T18:04:31.801Z,29.64
2022-08-26T18:07:43.513Z,29.54
2022-08-26T18:10:47.219Z,29.51
2022-08-26T18:13:49.464Z,29.34
2022-08-26T18:16:52.471Z,29.28
2022-08-26T18:19:54.951Z,29.32
2022-08-26T18:22:57.504Z,29.15
2022-08-26T18:25:59.748Z,29.22
2022-08-26T18:29:02.691Z,29.17
2022-08-26T18:32:05.083Z,29.12
2022-08-26T18:35:08.863Z,29.07
2022-08-26T18:38:14.046Z,29.01
2022-08-26T18:41:20.602Z,28.96
2022-08-26T18:44:23.370Z,28.92
2022-08-26T18:47:25.918Z,28.76
2022-08-26T18:50:28.743Z,28.82
2022-08-26T18:53:34.296Z,28.66
2022-08-26T18:56:38.268Z,28.62
2022-08-26T18:59:41.047Z,28.66
2022-08-26T19:02:43.716Z,28.50
2022-08-26T19:05:55.546Z,28.45
2022-08-26T19:08:58.292Z,28.52
2022-08-26T19:12:02.302Z,28.38
2022-08-26T19:15:05.043Z,28.40
2022-08-26T19:18:15.139Z,28.26
2022-08-26T19:21:17.858Z,28.21
2022-08-26T19:24:21.151Z,28.16
2022-08-26T19:27:23.432Z,28.11
2022-08-26T19:30:27.997Z,28.17
2022-08-26T19:33:33.463Z,28.02
2022-08-26T19:36:36.556Z,27.97
2022-08-26T19:39:38.890Z,28.00
2022-08-26T19:42:42.007Z,27.84
2022-08-26T19:45:44.815Z,27.94
2022-08-26T19:48:47.989Z,27.88
2022-08-26T19:51:53.212Z,27.87
2022-08-26T19:54:55.956Z,27.77
2022-08-26T19:57:58.381Z,27.68
2022-08-26T20:01:02.794Z,27.58
2022-08-26T20:04:09.906Z,27.60
2022-08-26T20:07:18.520Z,27.66
2022-08-26T20:10:24.113Z,27.63
2022-08-26T20:13:29.236Z,27.60
2022-08-26T20:16:33.044Z,27.55
2022-08-26T20:19:54.210Z,27.52
2022-08-26T20:22:59.277Z,27.37
2022-08-26T20:26:06.215Z,27.43
2022-08-26T20:29:15.324Z,27.42
2022-08-26T20:32:22.031Z,27.38
2022-08-26T20:35:30.211Z,26.92
2022-08-26T20:38:32.468Z,26.89
2022-08-26T20:41:36.787Z,27.23
2022-08-26T20:44:40.324Z,27.07
2022-08-26T20:47:52.466Z,27.15
2022-08-26T20:50:59.741Z,27.11
2022-08-26T20:54:02.523Z,26.88
2022-08-26T20:57:07.863Z,27.03
2022-08-26T21:00:13.206Z,26.99
2022-08-26T21:03:19.691Z,26.81
2022-08-26T21:06:23.193Z,26.93
2022-08-26T21:09:29.747Z,26.79
2022-08-26T21:12:33.355Z,26.90
2022-08-26T21:15:35.635Z,26.84
2022-08-26T21:18:40.809Z,26.82
2022-08-26T21:21:50.000Z,26.67
2022-08-26T21:25:04.306Z,26.76
2022-08-26T21:28:06.656Z,26.68
2022-08-26T21:31:16.098Z,26.59
2022-08-26T21:34:22.414Z,26.69
2022-08-26T21:37:26.374Z,26.56
2022-08-26T21:40:28.651Z,26.54
2022-08-26T21:43:35.526Z,26.56
2022-08-26T21:46:38.288Z,26.67
2022-08-26T21:49:40.907Z,26.55
2022-08-26T21:52:46.169Z,26.66
2022-08-26T21:55:48.892Z,26.65
2022-08-26T21:58:52.576Z,26.51
2022-08-26T22:01:56.173Z,26.50
2022-08-26T22:04:58.717Z,26.44
2022-08-26T22:08:00.959Z,26.56
2022-08-26T22:11:06.849Z,26.48
2022-08-26T22:14:09.799Z,26.47
2022-08-26T22:17:12.713Z,26.29
2022-08-26T22:20:16.645Z,26.33
2022-08-26T22:23:20.836Z,26.34
2022-08-26T22:26:25.523Z,26.25
2022-08-26T22:29:28.508Z,26.13
2022-08-26T22:32:30.709Z,26.19
2022-08-26T22:35:40.491Z,26.07
2022-08-26T22:38:52.132Z,25.99
2022-08-26T22:42:03.924Z,25.55
2022-08-26T22:45:07.381Z,25.93
2022-08-26T22:48:12.393Z,25.97
2022-08-26T22:51:14.708Z,25.82
2022-08-26T22:54:19.469Z,25.80
2022-08-26T22:57:23.141Z,25.75
2022-08-26T23:00:28.981Z,25.83
2022-08-26T23:03:35.858Z,25.78
2022-08-26T23:06:41.614Z,25.76
2022-08-26T23:09:44.023Z,25.68
2022-08-26T23:12:46.591Z,25.65
2022-08-26T23:15:48.823Z,25.62
2022-08-26T23:18:51.369Z,25.39
2022-08-26T23:21:53.601Z,25.37
2022-08-26T23:24:56.424Z,25.37
2022-08-26T23:28:00.485Z,25.46
2022-08-26T23:31:03.448Z,25.32
2022-08-26T23:34:24.659Z,25.37
2022-08-26T23:37:34.938Z,25.21
2022-08-26T23:40:38.842Z,25.28
2022-08-26T23:43:41.743Z,25.28
2022-08-26T23:46:44.010Z,25.26
2022-08-26T23:49:46.594Z,25.21
2022-08-26T23:53:08.789Z,25.15
2022-08-26T23:56:16.457Z,25.03
2022-08-26T23:59:18.927Z,24.98
